Time;durP1;ratioP1;P1;durP2;ratioP2;P2;SDS_P1;SDS_P2;PMS_P1;PMS_P2;Temp;Humidity;BMP_temperature;BMP_pressure;BME280_temperature;BME280_humidity;BME280_pressure;Samples;Min_cycle;Max_cycle;Signal;HPM_P1;HPM_P2
2021/01/17 00:02:14;;;;;;;25.97;18.93;;;2.80;91.10;;;;;;5074726;28;20653;-72
2021/01/17 00:04:41;;;;;;;27.90;19.50;;;2.80;91.10;;;;;;5074516;28;20440;-72
2021/01/17 00:07:08;;;;;;;27.83;18.10;;;2.70;91.10;;;;;;5074434;28;20455;-72
2021/01/17 00:09:34;;;;;;;24.10;17.37;;;2.70;91.20;;;;;;5074335;28;20476;-72
2021/01/17 00:12:03;;;;;;;26.27;19.07;;;2.60;91.20;;;;;;5073958;28;20483;-72
2021/01/17 00:14:31;;;;;;;25.07;18.23;;;2.70;91.30;;;;;;5074004;28;20452;-72
2021/01/17 00:16:58;;;;;;;29.50;18.37;;;2.60;91.20;;;;;;5074156;28;20451;-72
2021/01/17 00:19:24;;;;;;;30.00;18.33;;;2.60;91.30;;;;;;5074197;28;20498;-72
2021/01/17 00:21:51;;;;;;;29.57;18.47;;;2.50;91.30;;;;;;5074107;28;20471;-72
2021/01/17 00:24:17;;;;;;;30.67;19.50;;;2.50;91.40;;;;;;5074111;28;20461;-72
2021/01/17 00:26:43;;;;;;;26.40;19.50;;;2.50;91.40;;;;;;5074127;28;20448;-72
2021/01/17 00:29:10;;;;;;;26.03;17.93;;;2.50;91.50;;;;;;5073969;28;20483;-72
2021/01/17 00:31:36;;;;;;;29.20;19.13;;;2.50;91.50;;;;;;5073948;28;20467;-72
2021/01/17 00:34:03;;;;;;;25.43;19.03;;;2.50;91.60;;;;;;5074000;28;20452;-72
2021/01/17 00:36:35;;;;;;;31.07;20.40;;;2.50;91.60;;;;;;5074179;28;20444;-72
2021/01/17 00:39:03;;;;;;;31.93;20.57;;;2.50;91.40;;;;;;5073910;28;20429;-72
2021/01/17 00:41:30;;;;;;;29.93;19.90;;;2.50;91.50;;;;;;5073057;28;20470;-72
2021/01/17 00:43:56;;;;;;;30.43;20.27;;;2.50;91.60;;;;;;5073816;28;20452;-72
2021/01/17 00:46:22;;;;;;;32.90;20.43;;;2.50;91.70;;;;;;5073795;28;20446;-72
2021/01/17 00:48:48;;;;;;;33.27;19.57;;;2.50;91.60;;;;;;5073714;28;20471;-72
2021/01/17 00:51:14;;;;;;;30.83;20.77;;;2.60;91.60;;;;;;5073643;28;20451;-72
2021/01/17 00:53:41;;;;;;;27.23;18.70;;;2.60;91.60;;;;;;5073674;28;20521;-72
2021/01/17 00:56:08;;;;;;;33.20;22.37;;;2.60;91.60;;;;;;5073662;28;20455;-72
2021/01/17 00:58:34;;;;;;;30.23;20.37;;;2.60;91.50;;;;;;5073638;28;20511;-72
2021/01/17 01:01:00;;;;;;;35.50;23.20;;;2.60;91.50;;;;;;5073550;28;20440;-72
2021/01/17 01:03:26;;;;;;;26.73;19.03;;;2.60;91.40;;;;;;5073312;28;20968;-72
2021/01/17 01:05:52;;;;;;;32.30;20.10;;;2.60;91.50;;;;;;5073798;28;20470;-72
2021/01/17 01:08:19;;;;;;;34.67;21.47;;;2.50;91.70;;;;;;5073472;28;20477;-72
2021/01/17 01:10:45;;;;;;;31.47;19.67;;;2.50;91.40;;;;;;5073244;28;20814;-72
2021/01/17 01:13:12;;;;;;;32.20;20.30;;;2.50;91.60;;;;;;5073433;28;20469;-72
2021/01/17 01:15:38;;;;;;;32.70;20.30;;;2.50;91.70;;;;;;5073488;28;20444;-72
2021/01/17 01:18:05;;;;;;;31.97;20.67;;;2.50;91.50;;;;;;5073160;28;20989;-72
2021/01/17 01:20:31;;;;;;;31.30;19.93;;;2.60;91.60;;;;;;5073670;28;20448;-72
2021/01/17 01:22:57;;;;;;;30.70;20.90;;;2.60;91.60;;;;;;5073311;28;20479;-72
2021/01/17 01:25:23;;;;;;;33.80;20.60;;;2.50;91.30;;;;;;5073378;28;20440;-72
2021/01/17 01:27:49;;;;;;;31.80;21.20;;;2.50;91.40;;;;;;5073298;28;20491;-72
2021/01/17 01:30:17;;;;;;;36.50;22.77;;;2.40;91.60;;;;;;5072987;28;20861;-72
2021/01/17 01:32:43;;;;;;;34.30;23.13;;;2.40;91.70;;;;;;5073193;28;20468;-72
2021/01/17 01:35:10;;;;;;;32.13;20.60;;;2.40;91.70;;;;;;5073266;28;20448;-72
2021/01/17 01:37:37;;;;;;;29.37;18.63;;;2.40;91.60;;;;;;5072867;28;20470;-72
2021/01/17 01:40:05;;;;;;;30.07;19.30;;;2.40;91.70;;;;;;5073197;28;20453;-72
2021/01/17 01:42:31;;;;;;;32.30;21.10;;;2.40;91.70;;;;;;5072875;28;20475;-72
2021/01/17 01:44:57;;;;;;;25.63;17.70;;;2.40;91.70;;;;;;5072892;28;20921;-72
2021/01/17 01:47:27;;;;;;;29.70;19.90;;;2.40;91.80;;;;;;5073123;28;20446;-72
2021/01/17 01:49:54;;;;;;;27.30;18.33;;;2.40;91.90;;;;;;5073096;28;20435;-72
2021/01/17 01:52:20;;;;;;;25.03;16.70;;;2.50;91.80;;;;;;5073284;28;20472;-72
2021/01/17 01:54:47;;;;;;;30.27;18.80;;;2.50;91.90;;;;;;5077052;28;20447;-72
2021/01/17 01:57:13;;;;;;;27.43;17.73;;;2.50;91.80;;;;;;5077748;28;20829;-72
2021/01/17 01:59:39;;;;;;;30.57;19.23;;;2.50;91.70;;;;;;5076946;28;20443;-72
2021/01/17 02:02:07;;;;;;;24.83;17.40;;;2.50;91.70;;;;;;5076877;28;20463;-72
2021/01/17 02:04:36;;;;;;;28.57;18.73;;;2.40;91.60;;;;;;5076815;28;20443;-72
2021/01/17 02:07:23;;;;;;;31.10;19.00;;;2.50;91.70;;;;;;5076760;28;20481;-72
2021/01/17 02:09:49;;;;;;;30.13;18.33;;;2.40;91.70;;;;;;5076657;28;20471;-72
2021/01/17 02:12:26;;;;;;;31.80;18.87;;;2.40;91.70;;;;;;5076488;28;20481;-72
2021/01/17 02:14:57;;;;;;;30.27;18.80;;;2.40;91.80;;;;;;5076711;28;20515;-72
2021/01/17 02:17:28;;;;;;;32.03;20.63;;;2.50;92.20;;;;;;5076644;28;20436;-72
2021/01/17 02:20:08;;;;;;;24.83;17.50;;;2.50;91.80;;;;;;5076326;28;20427;-72
2021/01/17 02:22:40;;;;;;;29.37;20.37;;;2.60;91.80;;;;;;5076502;28;20471;-72
2021/01/17 02:25:09;;;;;;;27.93;19.47;;;2.60;91.70;;;;;;5076412;28;20434;-72
2021/01/17 02:27:37;;;;;;;31.20;19.43;;;2.60;91.60;;;;;;5077057;28;20444;-72
2021/01/17 02:30:07;;;;;;;26.27;18.47;;;2.60;91.50;;;;;;5076063;28;20966;-72
2021/01/17 02:32:36;;;;;;;34.30;19.13;;;2.60;91.60;;;;;;5075065;28;20537;-72
2021/01/17 02:35:04;;;;;;;34.07;19.23;;;2.60;91.60;;;;;;5076209;28;20456;-72
2021/01/17 02:37:38;;;;;;;24.03;18.10;;;2.60;91.60;;;;;;5076215;28;20451;-72
2021/01/17 02:40:13;;;;;;;30.00;18.90;;;2.60;91.50;;;;;;5076173;28;20450;-72
2021/01/17 02:42:41;;;;;;;31.37;18.93;;;2.70;91.50;;;;;;5076040;28;20466;-72
2021/01/17 02:45:08;;;;;;;27.40;17.53;;;2.70;91.50;;;;;;5076012;28;20451;-72
2021/01/17 02:47:35;;;;;;;30.77;18.27;;;2.70;91.40;;;;;;5075933;28;20440;-72
2021/01/17 02:50:02;;;;;;;29.80;19.43;;;2.70;91.40;;;;;;5076059;28;20498;-72
2021/01/17 02:52:39;;;;;;;23.40;16.90;;;2.70;91.30;;;;;;5075952;28;20470;-72
2021/01/17 02:55:07;;;;;;;26.60;18.40;;;2.70;91.40;;;;;;5076067;28;20435;-72
2021/01/17 02:57:36;;;;;;;27.80;19.07;;;2.80;91.30;;;;;;5075938;28;20424;-72
2021/01/17 03:00:07;;;;;;;26.73;17.80;;;2.80;91.30;;;;;;5075839;28;20444;-72
2021/01/17 03:02:35;;;;;;;31.53;19.23;;;2.80;91.30;;;;;;5076513;28;20487;-72
2021/01/17 03:05:04;;;;;;;29.83;17.57;;;2.80;91.20;;;;;;5074554;28;20972;-72
2021/01/17 03:07:33;;;;;;;26.57;17.57;;;2.80;91.20;;;;;;5075667;28;20455;-72
2021/01/17 03:10:01;;;;;;;29.83;18.43;;;2.80;91.10;;;;;;5075502;28;20440;-72
2021/01/17 03:12:27;;;;;;;29.70;18.40;;;2.80;91.20;;;;;;5075263;28;20988;-72
2021/01/17 03:14:58;;;;;;;28.03;19.40;;;2.80;91.20;;;;;;5075527;28;20476;-72
2021/01/17 03:17:24;;;;;;;31.20;19.30;;;2.80;91.10;;;;;;5075468;28;20426;-72
2021/01/17 03:19:50;;;;;;;28.33;17.97;;;2.80;91.20;;;;;;5075514;28;20448;-72
2021/01/17 03:22:16;;;;;;;30.43;19.73;;;2.80;91.20;;;;;;5075326;28;20467;-72
2021/01/17 03:24:42;;;;;;;29.37;18.27;;;2.80;91.20;;;;;;5075315;28;20963;-72
2021/01/17 03:27:09;;;;;;;33.33;19.03;;;2.90;91.20;;;;;;5075303;28;20446;-72
2021/01/17 03:29:35;;;;;;;28.70;18.23;;;2.90;91.20;;;;;;5075191;28;20479;-72
2021/01/17 03:32:02;;;;;;;32.17;19.40;;;2.90;91.10;;;;;;5075351;28;20464;-72
2021/01/17 03:34:28;;;;;;;30.73;19.40;;;2.90;91.10;;;;;;5075120;28;20459;-72
2021/01/17 03:36:54;;;;;;;28.70;17.80;;;2.90;91.00;;;;;;5075104;28;20435;-72
2021/01/17 03:39:20;;;;;;;31.73;18.17;;;2.90;91.00;;;;;;5074737;28;20443;-72
2021/01/17 03:41:47;;;;;;;28.63;18.43;;;2.90;91.00;;;;;;5074961;28;20476;-72
2021/01/17 03:44:13;;;;;;;26.93;17.97;;;2.90;91.10;;;;;;5074573;28;20452;-72
2021/01/17 03:46:39;;;;;;;25.97;18.03;;;2.90;91.10;;;;;;5074902;28;20471;-72
2021/01/17 03:49:06;;;;;;;29.47;20.43;;;2.90;91.10;;;;;;5074762;28;20473;-72
2021/01/17 03:51:33;;;;;;;29.60;19.23;;;3.00;91.10;;;;;;5074727;28;20471;-72
2021/01/17 03:53:59;;;;;;;27.10;17.90;;;3.00;91.10;;;;;;5074724;28;20444;-72
2021/01/17 03:56:25;;;;;;;30.00;17.20;;;2.90;91.10;;;;;;5074938;28;20450;-72
2021/01/17 03:58:51;;;;;;;29.77;18.23;;;3.00;91.20;;;;;;5074666;28;20444;-72
2021/01/17 04:01:17;;;;;;;27.53;17.33;;;2.90;91.10;;;;;;5074522;28;20444;-72
2021/01/17 04:03:44;;;;;;;27.40;17.23;;;2.90;91.20;;;;;;5074501;28;20945;-72
2021/01/17 04:06:11;;;;;;;27.90;18.57;;;2.90;91.30;;;;;;5074461;28;20455;-71
2021/01/17 04:08:37;;;;;;;26.33;17.00;;;3.00;91.40;;;;;;5074378;28;20480;-72
2021/01/17 04:11:03;;;;;;;32.07;18.40;;;3.00;91.40;;;;;;5074051;28;20457;-72
2021/01/17 04:13:29;;;;;;;31.53;17.90;;;2.90;91.40;;;;;;5074615;28;20447;-72
2021/01/17 04:15:56;;;;;;;28.03;18.37;;;3.00;91.50;;;;;;5074267;28;20448;-72
2021/01/17 04:18:22;;;;;;;26.87;17.77;;;3.00;91.50;;;;;;5074266;28;20451;-72
2021/01/17 04:20:49;;;;;;;29.37;18.50;;;3.00;91.50;;;;;;5073956;28;20985;-72
2021/01/17 04:23:16;;;;;;;26.53;17.10;;;3.10;91.50;;;;;;5073812;28;20977;-72
2021/01/17 04:25:42;;;;;;;31.00;19.10;;;3.10;91.50;;;;;;5073839;28;20968;-72
2021/01/17 04:28:10;;;;;;;31.37;18.60;;;3.00;91.60;;;;;;5073709;28;20989;-72
2021/01/17 04:30:37;;;;;;;29.60;19.60;;;3.00;91.60;;;;;;5073718;28;20459;-72
2021/01/17 04:33:04;;;;;;;30.03;18.07;;;3.10;91.70;;;;;;5073965;28;20493;-72
2021/01/17 04:35:31;;;;;;;28.03;17.93;;;3.10;91.70;;;;;;5073933;28;20454;-72
2021/01/17 04:37:58;;;;;;;29.53;18.90;;;3.10;91.80;;;;;;5073989;28;20440;-72
2021/01/17 04:40:27;;;;;;;25.40;16.57;;;3.10;91.90;;;;;;5073898;28;20448;-72
2021/01/17 04:43:07;;;;;;;31.23;18.40;;;3.10;91.80;;;;;;5073870;28;20483;-72
2021/01/17 04:45:34;;;;;;;27.60;18.47;;;3.10;91.70;;;;;;5073917;28;20827;-72
2021/01/17 04:48:02;;;;;;;30.00;19.00;;;3.10;91.60;;;;;;5073422;28;20848;-72
2021/01/17 04:50:31;;;;;;;31.93;19.17;;;3.10;91.60;;;;;;5073743;28;20480;-72
2021/01/17 04:53:00;;;;;;;30.50;17.00;;;3.20;91.70;;;;;;5073669;28;20522;-72
2021/01/17 04:55:28;;;;;;;26.90;18.47;;;3.20;91.70;;;;;;5073685;28;20451;-72
2021/01/17 04:58:10;;;;;;;28.40;18.73;;;3.20;91.70;;;;;;5073394;28;20887;-72
2021/01/17 05:00:40;;;;;;;28.00;17.90;;;3.20;91.70;;;;;;5073757;28;20428;-72
2021/01/17 05:03:24;;;;;;;26.73;17.90;;;3.20;91.80;;;;;;5073548;28;20530;-72
2021/01/17 05:06:05;;;;;;;27.70;16.80;;;3.20;91.80;;;;;;5073535;28;20438;-72
2021/01/17 05:08:34;;;;;;;27.60;17.13;;;3.20;91.90;;;;;;5073172;28;21030;-72
2021/01/17 05:11:03;;;;;;;29.43;18.93;;;3.20;91.80;;;;;;5073126;28;20460;-71
2021/01/17 05:13:35;;;;;;;27.93;18.23;;;3.20;91.70;;;;;;5073395;28;20452;-72
2021/01/17 05:16:05;;;;;;;28.83;17.83;;;3.20;91.70;;;;;;5073227;28;20435;-72
2021/01/17 05:18:32;;;;;;;23.73;16.67;;;3.20;91.70;;;;;;5074325;28;20461;-72
2021/01/17 05:21:01;;;;;;;26.50;17.47;;;3.20;91.60;;;;;;5073072;28;20782;-72
2021/01/17 05:23:33;;;;;;;29.27;18.80;;;3.20;91.60;;;;;;5073086;28;20961;-72
2021/01/17 05:26:02;;;;;;;29.83;19.10;;;3.20;91.60;;;;;;5073434;28;20433;-72
2021/01/17 05:28:30;;;;;;;28.50;17.73;;;3.30;91.80;;;;;;5077903;28;20483;-72
2021/01/17 05:30:56;;;;;;;30.33;17.50;;;3.20;91.80;;;;;;5079921;28;20468;-72
2021/01/17 05:33:27;;;;;;;31.43;19.80;;;3.20;91.80;;;;;;5079905;28;20471;-72
2021/01/17 05:35:54;;;;;;;32.23;19.13;;;3.20;91.90;;;;;;5079663;28;20776;-72
2021/01/17 05:38:21;;;;;;;32.40;22.43;;;3.20;91.90;;;;;;5079917;28;20444;-72
2021/01/17 05:40:47;;;;;;;31.40;21.27;;;3.20;92.00;;;;;;5079612;28;20444;-72
2021/01/17 05:43:14;;;;;;;33.80;22.17;;;3.20;92.00;;;;;;5080061;28;20469;-72
2021/01/17 05:45:40;;;;;;;29.93;19.60;;;3.20;92.00;;;;;;5079709;28;20447;-72
2021/01/17 05:48:07;;;;;;;31.13;21.17;;;3.20;92.00;;;;;;5079739;28;20456;-72
2021/01/17 05:50:36;;;;;;;37.23;21.80;;;3.30;92.00;;;;;;5079826;28;20781;-72
2021/01/17 05:53:04;;;;;;;34.63;21.87;;;3.30;92.00;;;;;;5079690;28;20487;-72
2021/01/17 05:55:31;;;;;;;33.80;21.13;;;3.30;91.90;;;;;;5079744;28;20500;-72
2021/01/17 05:58:26;;;;;;;43.43;23.33;;;3.30;91.90;;;;;;5079433;28;20968;-72
2021/01/17 06:00:54;;;;;;;38.97;23.57;;;3.30;91.80;;;;;;5079806;28;20515;-72
2021/01/17 06:03:22;;;;;;;31.90;21.10;;;3.30;91.70;;;;;;5079337;28;20977;-72
2021/01/17 06:05:50;;;;;;;35.07;22.10;;;3.30;91.60;;;;;;5079732;28;20424;-72
2021/01/17 06:08:20;;;;;;;38.53;22.37;;;3.20;91.60;;;;;;5079584;28;20825;-72
2021/01/17 06:10:47;;;;;;;33.30;21.00;;;3.30;91.70;;;;;;5079552;28;20467;-72
2021/01/17 06:13:24;;;;;;;32.27;20.23;;;3.30;91.70;;;;;;5079485;28;20466;-72
2021/01/17 06:15:52;;;;;;;37.70;22.53;;;3.20;91.70;;;;;;5079557;28;20458;-72
2021/01/17 06:18:19;;;;;;;39.83;23.37;;;3.30;91.80;;;;;;5079530;28;20451;-72
2021/01/17 06:20:46;;;;;;;34.90;21.47;;;3.30;91.80;;;;;;5079549;28;20448;-72
2021/01/17 06:23:19;;;;;;;33.30;21.17;;;3.30;91.80;;;;;;5079523;28;20462;-72
2021/01/17 06:25:46;;;;;;;31.63;20.80;;;3.20;91.70;;;;;;5079523;28;20436;-72
2021/01/17 06:28:14;;;;;;;30.83;18.13;;;3.20;91.80;;;;;;5079394;28;20567;-72
2021/01/17 06:30:42;;;;;;;28.60;18.90;;;3.20;91.80;;;;;;5079405;28;20444;-72
2021/01/17 06:33:20;;;;;;;32.20;20.00;;;3.20;91.90;;;;;;5079327;28;20474;-72
2021/01/17 06:35:47;;;;;;;28.20;18.43;;;3.20;92.00;;;;;;5079422;28;20435;-72
2021/01/17 06:38:17;;;;;;;29.17;17.67;;;3.20;92.10;;;;;;5079404;28;20508;-72
2021/01/17 06:40:45;;;;;;;28.43;18.27;;;3.30;92.30;;;;;;5075096;28;20452;-72
2021/01/17 06:43:12;;;;;;;30.07;19.30;;;3.20;92.20;;;;;;5076124;28;20468;-72
2021/01/17 06:45:39;;;;;;;31.77;20.07;;;3.20;92.10;;;;;;5076248;28;20448;-72
2021/01/17 06:48:06;;;;;;;35.17;19.10;;;3.10;92.00;;;;;;5076057;28;20448;-72
2021/01/17 06:50:33;;;;;;;31.73;20.30;;;3.20;92.20;;;;;;5076138;28;20443;-72
2021/01/17 06:52:59;;;;;;;33.37;18.93;;;3.10;92.10;;;;;;5075698;28;20464;-72
2021/01/17 06:55:26;;;;;;;34.03;19.03;;;3.10;92.20;;;;;;5075999;28;20502;-72
2021/01/17 06:57:53;;;;;;;33.50;20.80;;;3.10;92.20;;;;;;5075974;28;20530;-72
2021/01/17 07:00:20;;;;;;;31.27;20.07;;;3.10;92.20;;;;;;5075934;28;20472;-72
2021/01/17 07:02:54;;;;;;;29.03;18.30;;;3.10;92.40;;;;;;5075797;28;20474;-72
2021/01/17 07:05:53;;;;;;;30.40;20.40;;;3.10;92.40;;;;;;5075701;28;20447;-72
2021/01/17 07:08:46;;;;;;;29.57;19.90;;;3.00;92.30;;;;;;5075655;28;20837;-72
2021/01/17 07:11:39;;;;;;;30.20;18.23;;;3.00;92.50;;;;;;5075387;28;20949;-72
2021/01/17 07:14:07;;;;;;;33.60;19.27;;;3.00;92.70;;;;;;5045242;28;20439;-72
2021/01/17 07:16:35;;;;;;;34.57;20.43;;;3.00;92.80;;;;;;5075444;28;20957;-72
2021/01/17 07:19:07;;;;;;;30.57;18.33;;;3.00;92.90;;;;;;5075531;28;20568;-72
2021/01/17 07:21:36;;;;;;;35.20;20.33;;;3.00;93.00;;;;;;5075380;28;20473;-71
2021/01/17 07:24:05;;;;;;;29.30;18.20;;;3.10;93.00;;;;;;5075349;28;20447;-71
2021/01/17 07:26:49;;;;;;;29.17;19.20;;;3.10;93.00;;;;;;5075306;28;20444;-72
2021/01/17 07:29:19;;;;;;;32.63;19.37;;;3.10;93.00;;;;;;5074953;28;20989;-71
2021/01/17 07:31:49;;;;;;;35.63;21.03;;;3.10;93.00;;;;;;5075195;28;20479;-71
2021/01/17 07:34:15;;;;;;;34.30;19.80;;;3.10;93.10;;;;;;5075247;28;20443;-72
2021/01/17 07:36:48;;;;;;;33.07;19.37;;;3.10;93.10;;;;;;5075131;28;20444;-72
2021/01/17 07:39:18;;;;;;;35.87;20.67;;;3.10;93.10;;;;;;5074871;28;20942;-71
2021/01/17 07:41:48;;;;;;;37.80;22.70;;;3.10;93.10;;;;;;5075010;28;20471;-71
2021/01/17 07:44:17;;;;;;;32.80;20.17;;;3.20;93.20;;;;;;5074942;28;20441;-71
2021/01/17 07:46:43;;;;;;;35.20;19.80;;;3.20;93.50;;;;;;5074965;28;20451;-71
2021/01/17 07:49:12;;;;;;;29.80;19.47;;;3.20;93.20;;;;;;5074472;28;20995;-71
2021/01/17 07:51:38;;;;;;;31.47;19.37;;;3.30;93.20;;;;;;5074484;28;20465;-71
2021/01/17 07:54:09;;;;;;;35.00;22.60;;;3.30;93.20;;;;;;5074811;28;20448;-71
2021/01/17 07:56:37;;;;;;;29.43;19.23;;;3.30;93.20;;;;;;5075606;28;20436;-71
2021/01/17 07:59:05;;;;;;;29.73;19.40;;;3.30;93.20;;;;;;5074738;28;20476;-71
2021/01/17 08:01:47;;;;;;;31.00;21.70;;;3.40;93.30;;;;;;5074561;28;20464;-71
2021/01/17 08:04:46;;;;;;;30.97;19.13;;;3.40;93.30;;;;;;5074599;28;20448;-71
2021/01/17 08:07:30;;;;;;;29.33;17.97;;;3.40;93.30;;;;;;5059305;28;20471;-71
2021/01/17 08:09:56;;;;;;;32.40;20.73;;;3.40;93.20;;;;;;5073009;28;20510;-73
2021/01/17 08:12:30;;;;;;;29.03;19.00;;;3.40;93.30;;;;;;5073360;28;20479;-71
2021/01/17 08:15:18;;;;;;;32.60;19.93;;;3.40;93.30;;;;;;5074276;28;20443;-71
2021/01/17 08:17:45;;;;;;;36.23;21.80;;;3.40;93.20;;;;;;5074045;28;20494;-71
2021/01/17 08:20:21;;;;;;;32.10;21.70;;;3.40;93.20;;;;;;5074241;28;20553;-71
2021/01/17 08:22:47;;;;;;;32.90;20.90;;;3.40;93.20;;;;;;5074282;28;20830;-72
2021/01/17 08:25:47;;;;;;;32.83;20.67;;;3.50;93.30;;;;;;5074299;28;20499;-71
2021/01/17 08:28:36;;;;;;;35.03;23.50;;;3.50;93.30;;;;;;5074153;28;20436;-70
2021/01/17 08:31:32;;;;;;;34.20;22.67;;;3.50;93.40;;;;;;5074047;28;20467;-69
2021/01/17 08:34:07;;;;;;;35.83;22.60;;;3.50;93.50;;;;;;5074079;28;20428;-69
2021/01/17 08:36:33;;;;;;;37.43;23.77;;;3.50;93.40;;;;;;5073750;28;20909;-69
2021/01/17 08:38:59;;;;;;;28.27;17.03;;;3.40;93.30;;;;;;5074032;28;20443;-69
2021/01/17 08:41:27;;;;;;;33.33;18.77;;;3.50;93.40;;;;;;5073921;28;20835;-71
2021/01/17 08:43:55;;;;;;;29.87;17.03;;;3.40;93.40;;;;;;5074148;28;20857;-69
2021/01/17 08:46:34;;;;;;;28.60;18.73;;;3.50;93.60;;;;;;5073655;28;20448;-70
2021/01/17 08:49:01;;;;;;;34.80;17.00;;;3.40;93.60;;;;;;5073798;28;20558;-69
2021/01/17 08:51:28;;;;;;;27.90;16.90;;;3.40;93.60;;;;;;5073662;28;20519;-69
2021/01/17 08:53:55;;;;;;;24.37;15.57;;;3.50;93.70;;;;;;5073809;28;20455;-69
2021/01/17 08:56:23;;;;;;;27.57;17.63;;;3.50;93.70;;;;;;5073715;28;20428;-69
2021/01/17 08:58:51;;;;;;;29.97;19.77;;;3.50;93.80;;;;;;5073358;28;20539;-69
2021/01/17 09:01:19;;;;;;;29.83;19.40;;;3.50;93.90;;;;;;5073652;28;20838;-70
2021/01/17 09:03:56;;;;;;;29.27;18.30;;;3.50;94.00;;;;;;5072978;28;20474;-69
2021/01/17 09:06:28;;;;;;;28.93;20.27;;;3.50;94.10;;;;;;5073674;28;20443;-67
2021/01/17 09:09:05;;;;;;;29.63;20.23;;;3.50;94.00;;;;;;5073272;28;20973;-69
2021/01/17 09:11:37;;;;;;;28.47;18.60;;;3.50;94.00;;;;;;5073311;28;20852;-70
2021/01/17 09:14:27;;;;;;;27.93;19.83;;;3.50;93.90;;;;;;5073559;28;20436;-70
2021/01/17 09:16:57;;;;;;;36.57;20.77;;;3.50;93.90;;;;;;5073293;28;20517;-70
2021/01/17 09:19:28;;;;;;;35.00;20.83;;;3.50;93.90;;;;;;5074017;28;20502;-70
2021/01/17 09:21:55;;;;;;;33.33;19.77;;;3.60;94.10;;;;;;5073607;28;20464;-70
2021/01/17 09:24:23;;;;;;;34.40;21.27;;;3.60;94.10;;;;;;5073629;28;20432;-70
2021/01/17 09:26:52;;;;;;;30.03;18.53;;;3.50;94.10;;;;;;5074459;28;20448;-70
2021/01/17 09:29:30;;;;;;;30.27;19.07;;;3.60;94.20;;;;;;5074124;28;20472;-70
2021/01/17 09:32:03;;;;;;;37.87;20.57;;;3.60;94.10;;;;;;5073874;28;20478;-70
2021/01/17 09:34:32;;;;;;;28.20;18.00;;;3.60;94.10;;;;;;5073302;28;20959;-70
2021/01/17 09:37:00;;;;;;;28.73;19.37;;;3.60;94.10;;;;;;5073521;28;20451;-70
2021/01/17 09:39:35;;;;;;;31.30;18.23;;;3.60;94.10;;;;;;5073647;28;20448;-70
2021/01/17 09:42:02;;;;;;;33.37;20.73;;;3.60;94.10;;;;;;5073586;28;20464;-70
2021/01/17 09:44:28;;;;;;;33.77;21.37;;;3.60;94.10;;;;;;5073752;28;20448;-70
2021/01/17 09:46:55;;;;;;;29.07;20.50;;;3.60;94.10;;;;;;5073446;28;20451;-70
2021/01/17 09:49:28;;;;;;;35.37;21.97;;;3.70;94.20;;;;;;5073257;28;20515;-69
2021/01/17 09:51:54;;;;;;;31.10;21.40;;;3.70;94.20;;;;;;5072851;28;20475;-70
2021/01/17 09:54:21;;;;;;;32.50;21.10;;;3.70;94.20;;;;;;5073408;28;20444;-70
2021/01/17 09:56:48;;;;;;;29.97;19.50;;;3.70;94.10;;;;;;5073100;28;20448;-70
2021/01/17 09:59:19;;;;;;;34.80;22.23;;;3.70;94.20;;;;;;5073201;28;20463;-69
2021/01/17 10:01:47;;;;;;;38.17;22.73;;;3.80;94.30;;;;;;5073026;28;20467;-70
2021/01/17 10:04:28;;;;;;;36.10;23.07;;;3.80;94.30;;;;;;5073072;28;20486;-70
2021/01/17 10:06:57;;;;;;;34.90;21.87;;;3.80;94.30;;;;;;5073262;28;20436;-69
2021/01/17 10:09:25;;;;;;;34.33;21.23;;;3.80;94.30;;;;;;5072855;28;20478;-70
2021/01/17 10:11:55;;;;;;;30.80;18.80;;;3.80;94.30;;;;;;5073209;28;20483;-69
2021/01/17 10:14:23;;;;;;;40.83;22.60;;;3.80;94.40;;;;;;5074733;28;20495;-69
2021/01/17 10:16:50;;;;;;;38.80;20.90;;;3.90;94.40;;;;;;5076830;28;20489;-70
2021/01/17 10:19:22;;;;;;;44.37;25.40;;;3.90;94.30;;;;;;5076605;28;20851;-69
2021/01/17 10:21:49;;;;;;;40.83;23.73;;;3.90;94.30;;;;;;5076496;28;20476;-71
2021/01/17 10:24:20;;;;;;;39.07;23.53;;;3.90;94.40;;;;;;5076609;28;20482;-70
2021/01/17 10:26:50;;;;;;;36.67;21.00;;;4.00;94.50;;;;;;5076660;28;20490;-70
2021/01/17 10:29:20;;;;;;;30.47;19.20;;;4.00;94.60;;;;;;5076422;28;20538;-70
2021/01/17 10:31:51;;;;;;;35.73;19.50;;;4.00;94.60;;;;;;5076660;28;20469;-70
2021/01/17 10:34:29;;;;;;;30.93;16.97;;;4.00;94.60;;;;;;5076368;28;20448;-70
2021/01/17 10:36:58;;;;;;;27.10;16.93;;;4.00;94.70;;;;;;5075926;28;20930;-70
2021/01/17 10:39:25;;;;;;;36.50;18.07;;;4.10;94.80;;;;;;5076238;28;20450;-70
2021/01/17 10:42:00;;;;;;;33.97;16.73;;;4.10;94.90;;;;;;5075964;28;20464;-70
2021/01/17 10:44:29;;;;;;;33.17;18.20;;;4.10;94.90;;;;;;5076318;28;20429;-70
2021/01/17 10:47:03;;;;;;;37.30;18.60;;;4.10;95.00;;;;;;5076320;28;20448;-70
2021/01/17 10:49:34;;;;;;;32.17;17.17;;;4.20;95.10;;;;;;5076762;28;20464;-70
2021/01/17 10:52:10;;;;;;;41.10;18.13;;;4.10;95.10;;;;;;5076011;28;20464;-70
2021/01/17 10:54:41;;;;;;;38.07;20.70;;;4.20;95.20;;;;;;5076043;28;20524;-70
2021/01/17 10:57:09;;;;;;;43.40;20.33;;;4.20;95.30;;;;;;5075955;28;20436;-70
2021/01/17 10:59:36;;;;;;;39.77;19.07;;;4.20;95.40;;;;;;5075549;28;20436;-70
2021/01/17 11:02:02;;;;;;;37.17;21.57;;;4.20;95.50;;;;;;5075474;28;20464;-70
2021/01/17 11:04:38;;;;;;;38.93;21.60;;;4.30;95.60;;;;;;5075803;28;20440;-70
2021/01/17 11:07:06;;;;;;;48.20;22.27;;;4.30;95.60;;;;;;5075475;28;20925;-70
2021/01/17 11:09:33;;;;;;;45.93;23.90;;;4.30;95.70;;;;;;5075965;28;20476;-69
2021/01/17 11:12:00;;;;;;;41.87;21.90;;;4.30;95.80;;;;;;5075499;28;20864;-69
2021/01/17 11:14:27;;;;;;;40.50;22.13;;;4.30;95.90;;;;;;5075507;28;20584;-69
2021/01/17 11:16:55;;;;;;;48.20;24.07;;;4.40;96.10;;;;;;5075609;28;20448;-70
2021/01/17 11:19:33;;;;;;;47.90;23.40;;;4.40;96.10;;;;;;5075490;28;20441;-69
2021/01/17 11:21:59;;;;;;;42.10;22.33;;;4.40;96.30;;;;;;5075432;28;20496;-68
2021/01/17 11:24:33;;;;;;;40.27;21.20;;;4.40;96.50;;;;;;5075061;28;20452;-69
2021/01/17 11:27:13;;;;;;;44.43;22.00;;;4.50;96.70;;;;;;5074700;28;20784;-70
2021/01/17 11:29:41;;;;;;;39.90;22.20;;;4.50;96.80;;;;;;5074855;28;20837;-69
2021/01/17 11:32:08;;;;;;;54.33;21.90;;;4.60;97.00;;;;;;5074871;28;20982;-68
2021/01/17 11:34:38;;;;;;;39.97;21.67;;;4.60;97.10;;;;;;5075266;28;20428;-70
2021/01/17 11:37:06;;;;;;;49.83;22.90;;;4.60;97.10;;;;;;5075182;28;20437;-68
2021/01/17 11:39:33;;;;;;;39.33;19.93;;;4.60;97.30;;;;;;5074746;28;20816;-69
2021/01/17 11:42:00;;;;;;;44.70;21.57;;;4.70;97.50;;;;;;5075021;28;20535;-69
2021/01/17 11:44:31;;;;;;;49.93;21.90;;;4.70;97.60;;;;;;5075115;28;20433;-70
2021/01/17 11:47:00;;;;;;;44.27;22.60;;;4.70;97.70;;;;;;5074654;28;20435;-69
2021/01/17 11:49:27;;;;;;;53.70;20.73;;;4.70;97.80;;;;;;5074888;28;20476;-69
2021/01/17 11:51:54;;;;;;;46.33;22.47;;;4.70;98.00;;;;;;5074868;28;20536;-73
2021/01/17 11:54:22;;;;;;;48.20;24.90;;;4.80;98.20;;;;;;5074537;28;20437;-73
2021/01/17 11:56:49;;;;;;;45.50;22.23;;;4.80;98.20;;;;;;5074837;28;20826;-72
2021/01/17 11:59:26;;;;;;;51.33;22.67;;;4.80;98.20;;;;;;5075138;28;20444;-72
2021/01/17 12:01:53;;;;;;;52.53;21.27;;;4.80;98.30;;;;;;5074676;28;20492;-72
2021/01/17 12:04:24;;;;;;;46.13;22.57;;;4.80;98.20;;;;;;5074587;28;20532;-72
2021/01/17 12:07:06;;;;;;;46.83;19.97;;;4.80;98.20;;;;;;5074761;28;20461;-72
2021/01/17 12:09:32;;;;;;;53.63;20.50;;;4.90;98.20;;;;;;5074461;28;20472;-73
2021/01/17 12:12:13;;;;;;;43.93;21.20;;;4.90;98.10;;;;;;5074786;28;20480;-73
2021/01/17 12:14:40;;;;;;;49.87;21.30;;;4.90;98.10;;;;;;5074818;28;20482;-70
2021/01/17 12:17:07;;;;;;;44.40;20.93;;;4.90;98.00;;;;;;5074417;28;20865;-69
2021/01/17 12:19:36;;;;;;;49.63;20.40;;;4.90;98.10;;;;;;5074331;28;20532;-70
2021/01/17 12:22:03;;;;;;;44.90;20.87;;;4.90;98.40;;;;;;5074242;28;20836;-69
2021/01/17 12:24:30;;;;;;;47.80;21.33;;;5.00;98.10;;;;;;5074273;28;20436;-70
2021/01/17 12:26:56;;;;;;;46.33;21.70;;;5.00;98.10;;;;;;5074217;28;20448;-69
2021/01/17 12:29:23;;;;;;;42.90;21.00;;;5.10;98.10;;;;;;5074089;28;20872;-72
2021/01/17 12:31:51;;;;;;;47.00;21.53;;;5.10;98.30;;;;;;5074004;28;20467;-71
2021/01/17 12:34:18;;;;;;;51.43;22.47;;;5.20;98.30;;;;;;5074011;28;20448;-71
2021/01/17 12:36:45;;;;;;;53.27;22.00;;;5.30;98.50;;;;;;5073228;28;20807;-71
2021/01/17 12:39:13;;;;;;;44.23;21.80;;;5.30;98.50;;;;;;5073630;28;20436;-71
2021/01/17 12:41:44;;;;;;;44.47;20.93;;;5.30;98.60;;;;;;5073589;28;20456;-71
2021/01/17 12:44:11;;;;;;;50.50;21.57;;;5.40;98.70;;;;;;5073887;28;20444;-71
2021/01/17 12:46:38;;;;;;;50.87;23.50;;;5.40;98.80;;;;;;5073891;28;20479;-71
2021/01/17 12:49:04;;;;;;;52.27;21.57;;;5.50;99.20;;;;;;5073376;28;20475;-71